sensor_id;sensor_type;location;lat;lon;timestamp;pressure;altitude;pressure_sealevel;temperature;humidity
24306;BME280;12423;48.768;8.850;2023-11-18T00:02:23;97825.94;;;4.39;100.00
24306;BME280;12423;48.768;8.850;2023-11-18T00:04:51;97820.09;;;4.33;100.00
24306;BME280;12423;48.768;8.850;2023-11-18T00:07:19;97832.69;;;4.28;100.00
24306;BME280;12423;48.768;8.850;2023-11-18T00:09:46;97825.81;;;4.23;100.00
24306;BME280;12423;48.768;8.850;2023-11-18T00:12:13;97824.75;;;4.28;100.00
24306;BME280;12423;48.768;8.850;2023-11-18T00:14:42;97825.16;;;4.37;100.00
24306;BME280;12423;48.768;8.850;2023-11-18T00:17:11;97826.03;;;4.38;100.00
24306;BME280;12423;48.768;8.850;2023-11-18T00:19:39;97820.44;;;4.44;100.00
24306;BME280;12423;48.768;8.850;2023-11-18T00:22:08;97821.34;;;4.43;100.00
24306;BME280;12423;48.768;8.850;2023-11-18T00:24:37;97819.50;;;4.45;100.00
24306;BME280;12423;48.768;8.850;2023-11-18T00:27:05;97816.69;;;4.48;100.00
24306;BME280;12423;48.768;8.850;2023-11-18T00:29:33;97821.91;;;4.50;100.00
24306;BME280;12423;48.768;8.850;2023-11-18T00:32:02;97822.69;;;4.52;100.00
24306;BME280;12423;48.768;8.850;2023-11-18T00:34:31;97827.97;;;4.52;100.00
24306;BME280;12423;48.768;8.850;2023-11-18T00:36:58;97825.41;;;4.50;100.00
24306;BME280;12423;48.768;8.850;2023-11-18T00:39:26;97833.41;;;4.49;100.00
24306;BME280;12423;48.768;8.850;2023-11-18T00:41:54;97823.16;;;4.42;100.00
24306;BME280;12423;48.768;8.850;2023-11-18T00:44:23;97828.13;;;4.49;100.00
24306;BME280;12423;48.768;8.850;2023-11-18T00:46:50;97829.41;;;4.59;100.00
24306;BME280;12423;48.768;8.850;2023-11-18T00:49:19;97821.41;;;4.60;100.00
24306;BME280;12423;48.768;8.850;2023-11-18T00:51:48;97823.25;;;4.58;100.00
24306;BME280;12423;48.768;8.850;2023-11-18T00:54:16;97826.50;;;4.64;100.00
24306;BME280;12423;48.768;8.850;2023-11-18T00:56:43;97821.53;;;4.57;100.00
24306;BME280;12423;48.768;8.850;2023-11-18T00:59:11;97817.94;;;4.58;100.00
24306;BME280;12423;48.768;8.850;2023-11-18T01:01:38;97818.03;;;4.57;100.00
24306;BME280;12423;48.768;8.850;2023-11-18T01:04:06;97817.19;;;4.56;100.00
24306;BME280;12423;48.768;8.850;2023-11-18T01:06:37;97819.66;;;4.59;100.00
24306;BME280;12423;48.768;8.850;2023-11-18T01:09:05;97814.59;;;4.55;100.00
24306;BME280;12423;48.768;8.850;2023-11-18T01:11:34;97819.72;;;4.40;100.00
24306;BME280;12423;48.768;8.850;2023-11-18T01:14:02;97817.94;;;4.41;100.00
24306;BME280;12423;48.768;8.850;2023-11-18T01:16:30;97821.16;;;4.29;100.00
24306;BME280;12423;48.768;8.850;2023-11-18T01:18:57;97829.34;;;4.24;100.00
24306;BME280;12423;48.768;8.850;2023-11-18T01:21:25;97832.97;;;4.21;100.00
24306;BME280;12423;48.768;8.850;2023-11-18T01:23:55;97840.78;;;4.24;100.00
24306;BME280;12423;48.768;8.850;2023-11-18T01:26:22;97837.84;;;4.31;100.00
24306;BME280;12423;48.768;8.850;2023-11-18T01:28:50;97842.03;;;4.35;100.00
24306;BME280;12423;48.768;8.850;2023-11-18T01:31:18;97845.31;;;4.40;100.00
24306;BME280;12423;48.768;8.850;2023-11-18T01:33:46;97848.81;;;4.40;100.00
24306;BME280;12423;48.768;8.850;2023-11-18T01:36:16;97842.44;;;4.45;100.00
24306;BME280;12423;48.768;8.850;2023-11-18T01:38:44;97839.44;;;4.52;100.00
24306;BME280;12423;48.768;8.850;2023-11-18T01:41:14;97843.16;;;4.48;100.00
24306;BME280;12423;48.768;8.850;2023-11-18T01:43:45;97844.75;;;4.52;100.00
24306;BME280;12423;48.768;8.850;2023-11-18T01:46:13;97840.38;;;4.51;100.00
24306;BME280;12423;48.768;8.850;2023-11-18T01:48:41;97833.34;;;4.50;100.00
24306;BME280;12423;48.768;8.850;2023-11-18T01:51:09;97832.44;;;4.51;100.00
24306;BME280;12423;48.768;8.850;2023-11-18T01:53:39;97837.88;;;4.48;100.00
24306;BME280;12423;48.768;8.850;2023-11-18T01:56:09;97824.69;;;4.47;100.00
24306;BME280;12423;48.768;8.850;2023-11-18T01:58:39;97827.28;;;4.48;100.00
24306;BME280;12423;48.768;8.850;2023-11-18T02:01:07;97826.66;;;4.43;100.00
24306;BME280;12423;48.768;8.850;2023-11-18T02:03:36;97838.16;;;4.42;100.00
24306;BME280;12423;48.768;8.850;2023-11-18T02:06:05;97836.38;;;4.42;100.00
24306;BME280;12423;48.768;8.850;2023-11-18T02:08:35;97836.47;;;4.41;100.00
24306;BME280;12423;48.768;8.850;2023-11-18T02:11:09;97841.69;;;4.42;100.00
24306;BME280;12423;48.768;8.850;2023-11-18T02:13:40;97833.97;;;4.38;100.00
24306;BME280;12423;48.768;8.850;2023-11-18T02:16:11;97839.47;;;4.33;100.00
24306;BME280;12423;48.768;8.850;2023-11-18T02:18:41;97834.25;;;4.32;100.00
24306;BME280;12423;48.768;8.850;2023-11-18T02:21:10;97827.53;;;4.24;100.00
24306;BME280;12423;48.768;8.850;2023-11-18T02:23:40;97823.31;;;4.20;100.00
24306;BME280;12423;48.768;8.850;2023-11-18T02:26:11;97823.31;;;4.20;100.00
24306;BME280;12423;48.768;8.850;2023-11-18T02:28:38;97827.06;;;4.16;100.00
24306;BME280;12423;48.768;8.850;2023-11-18T02:31:10;97826.28;;;4.14;100.00
24306;BME280;12423;48.768;8.850;2023-11-18T02:33:47;97821.91;;;4.13;100.00
24306;BME280;12423;48.768;8.850;2023-11-18T02:36:20;97821.34;;;4.06;100.00
24306;BME280;12423;48.768;8.850;2023-11-18T02:38:52;97822.06;;;4.10;100.00
24306;BME280;12423;48.768;8.850;2023-11-18T02:41:24;97819.47;;;4.09;100.00
24306;BME280;12423;48.768;8.850;2023-11-18T02:43:56;97825.63;;;4.09;100.00
24306;BME280;12423;48.768;8.850;2023-11-18T02:46:25;97827.47;;;4.07;100.00
24306;BME280;12423;48.768;8.850;2023-11-18T02:48:54;97821.56;;;4.02;100.00
24306;BME280;12423;48.768;8.850;2023-11-18T02:51:23;97823.69;;;3.94;100.00
24306;BME280;12423;48.768;8.850;2023-11-18T02:53:51;97830.00;;;3.91;100.00
24306;BME280;12423;48.768;8.850;2023-11-18T02:56:18;97831.34;;;3.81;100.00
24306;BME280;12423;48.768;8.850;2023-11-18T02:58:47;97831.56;;;3.76;100.00
24306;BME280;12423;48.768;8.850;2023-11-18T03:01:15;97832.06;;;3.65;100.00
24306;BME280;12423;48.768;8.850;2023-11-18T03:03:42;97829.41;;;3.65;100.00
24306;BME280;12423;48.768;8.850;2023-11-18T03:06:10;97827.91;;;3.60;100.00
24306;BME280;12423;48.768;8.850;2023-11-18T03:08:38;97824.31;;;3.61;100.00
24306;BME280;12423;48.768;8.850;2023-11-18T03:11:08;97822.63;;;3.60;100.00
24306;BME280;12423;48.768;8.850;2023-11-18T03:13:37;97822.78;;;3.57;100.00
24306;BME280;12423;48.768;8.850;2023-11-18T03:16:08;97825.34;;;3.58;100.00
24306;BME280;12423;48.768;8.850;2023-11-18T03:18:38;97822.84;;;3.55;100.00
24306;BME280;12423;48.768;8.850;2023-11-18T03:21:11;97827.69;;;3.45;100.00
24306;BME280;12423;48.768;8.850;2023-11-18T03:23:39;97822.53;;;3.42;100.00
24306;BME280;12423;48.768;8.850;2023-11-18T03:26:08;97832.19;;;3.43;100.00
24306;BME280;12423;48.768;8.850;2023-11-18T03:28:37;97825.69;;;3.50;100.00
24306;BME280;12423;48.768;8.850;2023-11-18T03:31:05;97817.97;;;3.46;100.00
24306;BME280;12423;48.768;8.850;2023-11-18T03:33:34;97827.75;;;3.44;100.00
24306;BME280;12423;48.768;8.850;2023-11-18T03:36:02;97827.81;;;3.42;100.00
24306;BME280;12423;48.768;8.850;2023-11-18T03:38:29;97823.16;;;3.47;100.00
24306;BME280;12423;48.768;8.850;2023-11-18T03:40:57;97834.75;;;3.45;100.00
24306;BME280;12423;48.768;8.850;2023-11-18T03:43:25;97842.69;;;3.45;100.00
24306;BME280;12423;48.768;8.850;2023-11-18T03:45:55;97839.28;;;3.41;100.00
24306;BME280;12423;48.768;8.850;2023-11-18T03:48:23;97838.91;;;3.30;100.00
24306;BME280;12423;48.768;8.850;2023-11-18T03:50:52;97841.28;;;3.36;100.00
24306;BME280;12423;48.768;8.850;2023-11-18T03:53:20;97837.72;;;3.37;100.00
24306;BME280;12423;48.768;8.850;2023-11-18T03:55:48;97830.19;;;3.28;100.00
24306;BME280;12423;48.768;8.850;2023-11-18T03:58:18;97838.13;;;3.28;100.00
24306;BME280;12423;48.768;8.850;2023-11-18T04:00:46;97829.16;;;3.32;100.00
24306;BME280;12423;48.768;8.850;2023-11-18T04:03:13;97834.44;;;3.32;100.00
24306;BME280;12423;48.768;8.850;2023-11-18T04:05:41;97838.78;;;3.33;100.00
24306;BME280;12423;48.768;8.850;2023-11-18T04:08:10;97842.34;;;3.32;100.00
24306;BME280;12423;48.768;8.850;2023-11-18T04:10:39;97841.72;;;3.27;100.00
24306;BME280;12423;48.768;8.850;2023-11-18T04:13:07;97845.25;;;3.26;100.00
24306;BME280;12423;48.768;8.850;2023-11-18T04:15:35;97839.72;;;3.32;100.00
24306;BME280;12423;48.768;8.850;2023-11-18T04:18:03;97842.34;;;3.32;100.00
24306;BME280;12423;48.768;8.850;2023-11-18T04:20:32;97845.78;;;3.34;100.00
24306;BME280;12423;48.768;8.850;2023-11-18T04:23:00;97850.28;;;3.32;100.00
24306;BME280;12423;48.768;8.850;2023-11-18T04:25:29;97846.09;;;3.26;100.00
24306;BME280;12423;48.768;8.850;2023-11-18T04:27:57;97841.72;;;3.27;100.00
24306;BME280;12423;48.768;8.850;2023-11-18T04:30:25;97842.69;;;3.24;100.00
24306;BME280;12423;48.768;8.850;2023-11-18T04:32:53;97840.75;;;3.28;100.00
24306;BME280;12423;48.768;8.850;2023-11-18T04:35:21;97839.97;;;3.26;100.00
24306;BME280;12423;48.768;8.850;2023-11-18T04:37:49;97838.41;;;3.22;100.00
24306;BME280;12423;48.768;8.850;2023-11-18T04:40:16;97829.34;;;3.27;100.00
24306;BME280;12423;48.768;8.850;2023-11-18T04:42:45;97833.72;;;3.28;100.00
24306;BME280;12423;48.768;8.850;2023-11-18T04:45:13;97830.50;;;3.22;100.00
24306;BME280;12423;48.768;8.850;2023-11-18T04:47:41;97823.28;;;3.25;100.00
24306;BME280;12423;48.768;8.850;2023-11-18T04:50:11;97822.41;;;3.25;100.00
24306;BME280;12423;48.768;8.850;2023-11-18T04:52:39;97826.91;;;3.23;100.00
24306;BME280;12423;48.768;8.850;2023-11-18T04:55:08;97827.84;;;3.22;100.00
24306;BME280;12423;48.768;8.850;2023-11-18T04:57:40;97828.75;;;3.21;100.00
24306;BME280;12423;48.768;8.850;2023-11-18T05:00:10;97825.41;;;3.17;100.00
24306;BME280;12423;48.768;8.850;2023-11-18T05:02:38;97830.81;;;3.14;100.00
24306;BME280;12423;48.768;8.850;2023-11-18T05:05:06;97830.34;;;3.04;100.00
24306;BME280;12423;48.768;8.850;2023-11-18T05:07:35;97827.78;;;3.03;100.00
24306;BME280;12423;48.768;8.850;2023-11-18T05:10:03;97818.34;;;2.97;100.00
24306;BME280;12423;48.768;8.850;2023-11-18T05:12:32;97810.56;;;2.94;100.00
24306;BME280;12423;48.768;8.850;2023-11-18T05:15:00;97811.47;;;2.93;100.00
24306;BME280;12423;48.768;8.850;2023-11-18T05:17:31;97816.03;;;2.89;100.00
24306;BME280;12423;48.768;8.850;2023-11-18T05:19:58;97819.59;;;2.88;100.00
24306;BME280;12423;48.768;8.850;2023-11-18T05:22:27;97814.38;;;2.87;100.00
24306;BME280;12423;48.768;8.850;2023-11-18T05:24:54;97812.00;;;2.81;100.00
24306;BME280;12423;48.768;8.850;2023-11-18T05:27:22;97814.50;;;2.84;100.00
24306;BME280;12423;48.768;8.850;2023-11-18T05:29:50;97820.84;;;2.80;100.00
24306;BME280;12423;48.768;8.850;2023-11-18T05:32:21;97827.84;;;2.81;100.00
24306;BME280;12423;48.768;8.850;2023-11-18T05:34:50;97821.69;;;2.80;100.00
24306;BME280;12423;48.768;8.850;2023-11-18T05:37:20;97820.00;;;2.79;100.00
24306;BME280;12423;48.768;8.850;2023-11-18T05:39:49;97829.00;;;2.73;100.00
24306;BME280;12423;48.768;8.850;2023-11-18T05:42:25;97824.78;;;2.69;100.00
24306;BME280;12423;48.768;8.850;2023-11-18T05:44:57;97826.63;;;2.67;100.00
24306;BME280;12423;48.768;8.850;2023-11-18T05:47:26;97824.66;;;2.72;100.00
24306;BME280;12423;48.768;8.850;2023-11-18T05:49:55;97820.31;;;2.71;100.00
24306;BME280;12423;48.768;8.850;2023-11-18T05:52:23;97823.78;;;2.72;100.00
24306;BME280;12423;48.768;8.850;2023-11-18T05:54:50;97827.25;;;2.74;100.00
24306;BME280;12423;48.768;8.850;2023-11-18T05:57:19;97830.84;;;2.71;100.00
24306;BME280;12423;48.768;8.850;2023-11-18T05:59:46;97823.31;;;2.62;100.00
24306;BME280;12423;48.768;8.850;2023-11-18T06:02:15;97815.34;;;2.64;100.00
24306;BME280;12423;48.768;8.850;2023-11-18T06:04:45;97804.06;;;2.60;100.00
24306;BME280;12423;48.768;8.850;2023-11-18T06:07:15;97805.84;;;2.60;100.00
24306;BME280;12423;48.768;8.850;2023-11-18T06:09:44;97807.66;;;2.59;100.00
24306;BME280;12423;48.768;8.850;2023-11-18T06:12:12;97812.91;;;2.59;100.00
24306;BME280;12423;48.768;8.850;2023-11-18T06:14:39;97830.44;;;2.60;100.00
24306;BME280;12423;48.768;8.850;2023-11-18T06:17:08;97822.78;;;2.54;100.00
24306;BME280;12423;48.768;8.850;2023-11-18T06:19:39;97816.84;;;2.49;100.00
24306;BME280;12423;48.768;8.850;2023-11-18T06:22:07;97813.53;;;2.44;100.00
24306;BME280;12423;48.768;8.850;2023-11-18T06:24:36;97815.19;;;2.46;100.00
24306;BME280;12423;48.768;8.850;2023-11-18T06:27:05;97824.88;;;2.46;100.00
24306;BME280;12423;48.768;8.850;2023-11-18T06:29:35;97829.66;;;2.58;100.00
24306;BME280;12423;48.768;8.850;2023-11-18T06:32:03;97825.16;;;2.60;100.00
24306;BME280;12423;48.768;8.850;2023-11-18T06:34:32;97834.69;;;2.64;100.00
24306;BME280;12423;48.768;8.850;2023-11-18T06:37:01;97825.16;;;2.60;100.00
24306;BME280;12423;48.768;8.850;2023-11-18T06:39:28;97835.66;;;2.62;100.00
24306;BME280;12423;48.768;8.850;2023-11-18T06:41:57;97837.69;;;2.55;100.00
24306;BME280;12423;48.768;8.850;2023-11-18T06:44:25;97835.19;;;2.52;100.00
24306;BME280;12423;48.768;8.850;2023-11-18T06:46:53;97841.25;;;2.54;100.00
24306;BME280;12423;48.768;8.850;2023-11-18T06:49:21;97835.59;;;2.63;100.00
24306;BME280;12423;48.768;8.850;2023-11-18T06:51:52;97825.03;;;2.63;100.00
24306;BME280;12423;48.768;8.850;2023-11-18T06:54:19;97820.50;;;2.67;100.00
24306;BME280;12423;48.768;8.850;2023-11-18T06:56:47;97813.13;;;2.75;100.00
24306;BME280;12423;48.768;8.850;2023-11-18T06:59:19;97804.09;;;2.81;100.00
24306;BME280;12423;48.768;8.850;2023-11-18T07:01:47;97815.31;;;2.86;100.00
24306;BME280;12423;48.768;8.850;2023-11-18T07:04:15;97814.44;;;2.85;100.00
24306;BME280;12423;48.768;8.850;2023-11-18T07:06:43;97812.66;;;2.86;100.00
24306;BME280;12423;48.768;8.850;2023-11-18T07:09:11;97810.63;;;2.92;100.00
24306;BME280;12423;48.768;8.850;2023-11-18T07:11:44;97821.91;;;2.96;100.00
24306;BME280;12423;48.768;8.850;2023-11-18T07:14:13;97823.47;;;3.00;100.00
24306;BME280;12423;48.768;8.850;2023-11-18T07:16:43;97832.94;;;3.06;100.00
24306;BME280;12423;48.768;8.850;2023-11-18T07:19:12;97830.94;;;3.11;100.00
24306;BME280;12423;48.768;8.850;2023-11-18T07:21:46;97829.09;;;3.13;100.00
24306;BME280;12423;48.768;8.850;2023-11-18T07:24:14;97839.25;;;3.22;100.00
24306;BME280;12423;48.768;8.850;2023-11-18T07:26:44;97843.41;;;3.28;100.00
24306;BME280;12423;48.768;8.850;2023-11-18T07:29:12;97836.94;;;3.35;100.00
24306;BME280;12423;48.768;8.850;2023-11-18T07:31:40;97835.72;;;3.42;100.00
24306;BME280;12423;48.768;8.850;2023-11-18T07:34:09;97840.09;;;3.43;100.00
24306;BME280;12423;48.768;8.850;2023-11-18T07:36:37;97841.59;;;3.49;100.00
24306;BME280;12423;48.768;8.850;2023-11-18T07:39:05;97831.03;;;3.49;100.00
24306;BME280;12423;48.768;8.850;2023-11-18T07:41:42;97832.41;;;3.58;100.00
24306;BME280;12423;48.768;8.850;2023-11-18T07:44:09;97836.75;;;3.59;100.00
24306;BME280;12423;48.768;8.850;2023-11-18T07:46:39;97834.63;;;3.67;100.00
24306;BME280;12423;48.768;8.850;2023-11-18T07:49:10;97828.50;;;3.66;100.00
24306;BME280;12423;48.768;8.850;2023-11-18T07:51:38;97819.47;;;3.71;100.00
24306;BME280;12423;48.768;8.850;2023-11-18T07:54:07;97833.19;;;3.79;100.00
24306;BME280;12423;48.768;8.850;2023-11-18T07:56:36;97825.00;;;3.85;100.00
24306;BME280;12423;48.768;8.850;2023-11-18T07:59:04;97827.44;;;3.90;100.00
24306;BME280;12423;48.768;8.850;2023-11-18T08:01:34;97823.63;;;3.95;100.00
24306;BME280;12423;48.768;8.850;2023-11-18T08:04:02;97833.34;;;3.95;100.00
24306;BME280;12423;48.768;8.850;2023-11-18T08:06:34;97830.41;;;4.01;100.00
24306;BME280;12423;48.768;8.850;2023-11-18T08:09:02;97836.50;;;4.03;100.00
24306;BME280;12423;48.768;8.850;2023-11-18T08:11:30;97817.78;;;4.08;100.00
24306;BME280;12423;48.768;8.850;2023-11-18T08:13:58;97817.94;;;4.04;100.00
24306;BME280;12423;48.768;8.850;2023-11-18T08:16:25;97828.03;;;4.14;100.00
24306;BME280;12423;48.768;8.850;2023-11-18T08:18:54;97836.41;;;4.23;100.00
24306;BME280;12423;48.768;8.850;2023-11-18T08:21:22;97841.47;;;4.28;100.00
24306;BME280;12423;48.768;8.850;2023-11-18T08:23:51;97844.63;;;4.36;100.00
24306;BME280;12423;48.768;8.850;2023-11-18T08:26:19;97834.50;;;4.45;100.00
24306;BME280;12423;48.768;8.850;2023-11-18T08:28:47;97826.44;;;4.48;100.00
24306;BME280;12423;48.768;8.850;2023-11-18T08:31:15;97829.84;;;4.50;100.00
24306;BME280;12423;48.768;8.850;2023-11-18T08:33:44;97828.47;;;4.60;100.00
24306;BME280;12423;48.768;8.850;2023-11-18T08:36:13;97832.84;;;4.61;100.00
24306;BME280;12423;48.768;8.850;2023-11-18T08:38:40;97827.25;;;4.67;100.00
24306;BME280;12423;48.768;8.850;2023-11-18T08:41:12;97809.41;;;4.71;100.00
24306;BME280;12423;48.768;8.850;2023-11-18T08:43:39;97804.97;;;4.71;100.00
24306;BME280;12423;48.768;8.850;2023-11-18T08:46:08;97811.75;;;4.77;100.00
24306;BME280;12423;48.768;8.850;2023-11-18T08:48:36;97814.63;;;4.72;100.00
24306;BME280;12423;48.768;8.850;2023-11-18T08:51:04;97821.88;;;4.86;100.00
24306;BME280;12423;48.768;8.850;2023-11-18T08:53:35;97821.50;;;4.94;100.00
24306;BME280;12423;48.768;8.850;2023-11-18T08:56:08;97814.94;;;5.01;100.00
24306;BME280;12423;48.768;8.850;2023-11-18T08:58:43;97814.63;;;5.07;100.00
24306;BME280;12423;48.768;8.850;2023-11-18T09:01:12;97797.63;;;5.11;100.00
24306;BME280;12423;48.768;8.850;2023-11-18T09:03:42;97801.59;;;5.20;100.00
24306;BME280;12423;48.768;8.850;2023-11-18T09:06:19;97795.44;;;5.20;100.00
24306;BME280;12423;48.768;8.850;2023-11-18T09:08:53;97805.09;;;5.21;100.00
24306;BME280;12423;48.768;8.850;2023-11-18T09:11:22;97807.38;;;5.28;100.00
24306;BME280;12423;48.768;8.850;2023-11-18T09:13:51;97814.19;;;5.32;100.00
24306;BME280;12423;48.768;8.850;2023-11-18T09:16:21;97801.09;;;5.47;100.00
24306;BME280;12423;48.768;8.850;2023-11-18T09:18:51;97799.47;;;5.60;100.00
24306;BME280;12423;48.768;8.850;2023-11-18T09:21:19;97795.47;;;5.69;100.00
24306;BME280;12423;48.768;8.850;2023-11-18T09:23:51;97797.38;;;5.83;100.00
24306;BME280;12423;48.768;8.850;2023-11-18T09:26:19;97803.44;;;5.85;100.00
24306;BME280;12423;48.768;8.850;2023-11-18T09:28:48;97802.09;;;5.94;100.00
24306;BME280;12423;48.768;8.850;2023-11-18T09:31:18;97793.75;;;6.01;100.00
24306;BME280;12423;48.768;8.850;2023-11-18T09:33:48;97809.25;;;6.09;100.00
24306;BME280;12423;48.768;8.850;2023-11-18T09:36:20;97807.09;;;6.16;100.00
24306;BME280;12423;48.768;8.850;2023-11-18T09:38:49;97795.69;;;6.30;100.00
24306;BME280;12423;48.768;8.850;2023-11-18T09:41:17;97799.09;;;6.48;100.00
24306;BME280;12423;48.768;8.850;2023-11-18T09:43:46;97794.28;;;6.70;100.00
24306;BME280;12423;48.768;8.850;2023-11-18T09:46:16;97797.66;;;6.88;100.00
24306;BME280;12423;48.768;8.850;2023-11-18T09:48:48;97791.84;;;6.81;100.00
24306;BME280;12423;48.768;8.850;2023-11-18T09:51:21;97785.53;;;6.98;100.00
24306;BME280;12423;48.768;8.850;2023-11-18T09:53:50;97779.53;;;7.09;100.00
24306;BME280;12423;48.768;8.850;2023-11-18T09:56:23;97781.75;;;7.17;100.00
24306;BME280;12423;48.768;8.850;2023-11-18T09:59:06;97776.56;;;7.30;100.00
24306;BME280;12423;48.768;8.850;2023-11-18T10:01:43;97779.84;;;7.19;100.00
24306;BME280;12423;48.768;8.850;2023-11-18T10:04:15;97781.28;;;7.39;100.00
24306;BME280;12423;48.768;8.850;2023-11-18T10:06:45;97781.00;;;7.44;100.00
24306;BME280;12423;48.768;8.850;2023-11-18T10:09:14;97783.13;;;7.53;100.00
24306;BME280;12423;48.768;8.850;2023-11-18T10:11:55;97780.84;;;7.61;100.00
24306;BME280;12423;48.768;8.850;2023-11-18T10:14:27;97775.97;;;7.68;100.00
24306;BME280;12423;48.768;8.850;2023-11-18T10:16:56;97781.50;;;7.65;100.00
24306;BME280;12423;48.768;8.850;2023-11-18T10:19:25;97773.50;;;7.79;100.00
24306;BME280;12423;48.768;8.850;2023-11-18T10:21:53;97774.06;;;7.84;100.00
24306;BME280;12423;48.768;8.850;2023-11-18T10:24:23;97786.81;;;7.65;100.00
24306;BME280;12423;48.768;8.850;2023-11-18T10:26:55;97793.19;;;7.48;100.00
24306;BME280;12423;48.768;8.850;2023-11-18T10:29:24;97790.81;;;7.43;100.00
24306;BME280;12423;48.768;8.850;2023-11-18T10:32:05;97780.44;;;7.38;100.00
24306;BME280;12423;48.768;8.850;2023-11-18T10:34:38;97790.03;;;7.41;100.00
24306;BME280;12423;48.768;8.850;2023-11-18T10:37:06;97787.88;;;7.48;100.00
24306;BME280;12423;48.768;8.850;2023-11-18T10:39:37;97785.50;;;7.57;100.00
24306;BME280;12423;48.768;8.850;2023-11-18T10:42:05;97790.63;;;7.61;100.00
24306;BME280;12423;48.768;8.850;2023-11-18T10:44:32;97786.25;;;7.74;100.00
24306;BME280;12423;48.768;8.850;2023-11-18T10:47:00;97785.66;;;7.83;100.00
24306;BME280;12423;48.768;8.850;2023-11-18T10:49:28;97782.81;;;7.72;100.00
24306;BME280;12423;48.768;8.850;2023-11-18T10:52:05;97776.63;;;7.71;100.00
24306;BME280;12423;48.768;8.850;2023-11-18T10:54:35;97775.31;;;7.64;100.00
24306;BME280;12423;48.768;8.850;2023-11-18T10:57:04;97780.19;;;7.57;100.00
24306;BME280;12423;48.768;8.850;2023-11-18T10:59:34;97778.28;;;7.60;100.00
24306;BME280;12423;48.768;8.850;2023-11-18T11:02:18;97765.47;;;7.37;100.00
24306;BME280;12423;48.768;8.850;2023-11-18T11:04:48;97765.53;;;7.22;100.00
24306;BME280;12423;48.768;8.850;2023-11-18T11:07:19;97761.16;;;7.20;100.00
24306;BME280;12423;48.768;8.850;2023-11-18T11:09:50;97763.16;;;7.17;100.00
24306;BME280;12423;48.768;8.850;2023-11-18T11:12:25;97759.66;;;7.16;100.00
24306;BME280;12423;48.768;8.850;2023-11-18T11:14:58;97758.69;;;7.17;100.00
24306;BME280;12423;48.768;8.850;2023-11-18T11:17:27;97768.75;;;7.27;100.00
24306;BME280;12423;48.768;8.850;2023-11-18T11:20:03;97762.41;;;7.15;100.00
24306;BME280;12423;48.768;8.850;2023-11-18T11:22:48;97761.16;;;7.20;100.00
24306;BME280;12423;48.768;8.850;2023-11-18T11:25:29;97760.97;;;7.24;100.00
24306;BME280;12423;48.768;8.850;2023-11-18T11:28:09;97759.66;;;7.16;100.00
24306;BME280;12423;48.768;8.850;2023-11-18T11:30:42;97752.63;;;7.15;100.00
24306;BME280;12423;48.768;8.850;2023-11-18T11:33:20;97747.31;;;7.15;100.00
24306;BME280;12423;48.768;8.850;2023-11-18T11:35:54;97744.47;;;7.18;100.00
24306;BME280;12423;48.768;8.850;2023-11-18T11:38:25;97741.44;;;7.25;100.00
24306;BME280;12423;48.768;8.850;2023-11-18T11:40:55;97727.75;;;7.31;100.00
24306;BME280;12423;48.768;8.850;2023-11-18T11:43:27;97721.22;;;7.36;100.00
24306;BME280;12423;48.768;8.850;2023-11-18T11:45:56;97719.22;;;7.40;100.00
24306;BME280;12423;48.768;8.850;2023-11-18T11:48:25;97708.19;;;7.46;100.00
24306;BME280;12423;48.768;8.850;2023-11-18T11:51:03;97685.03;;;7.48;100.00
24306;BME280;12423;48.768;8.850;2023-11-18T11:53:45;97697.56;;;7.46;100.00
24306;BME280;12423;48.768;8.850;2023-11-18T11:56:15;97696.03;;;7.42;100.00
24306;BME280;12423;48.768;8.850;2023-11-18T11:58:47;97689.78;;;7.43;100.00
24306;BME280;12423;48.768;8.850;2023-11-18T12:01:24;97682.84;;;7.41;100.00
24306;BME280;12423;48.768;8.850;2023-11-18T12:03:57;97687.88;;;7.45;100.00
24306;BME280;12423;48.768;8.850;2023-11-18T12:06:26;97692.44;;;7.43;100.00
24306;BME280;12423;48.768;8.850;2023-11-18T12:08:56;97692.25;;;7.46;100.00
24306;BME280;12423;48.768;8.850;2023-11-18T12:11:24;97684.28;;;7.46;100.00
24306;BME280;12423;48.768;8.850;2023-11-18T12:14:01;97679.16;;;7.43;100.00
24306;BME280;12423;48.768;8.850;2023-11-18T12:17:01;97676.31;;;7.46;100.00
24306;BME280;12423;48.768;8.850;2023-11-18T12:19:35;97667.22;;;7.36;100.00
24306;BME280;12423;48.768;8.850;2023-11-18T12:22:14;97652.00;;;7.38;100.00
24306;BME280;12423;48.768;8.850;2023-11-18T12:28:16;97652.56;;;7.29;100.00
24306;BME280;12423;48.768;8.850;2023-11-18T12:30:48;97656.50;;;7.23;100.00
24306;BME280;12423;48.768;8.850;2023-11-18T12:34:02;97651.84;;;7.12;100.00
24306;BME280;12423;48.768;8.850;2023-11-18T12:36:58;97654.09;;;7.04;100.00
24306;BME280;12423;48.768;8.850;2023-11-18T12:39:59;97650.13;;;6.97;100.00
24306;BME280;12423;48.768;8.850;2023-11-18T12:43:01;97638.94;;;6.92;100.00
24306;BME280;12423;48.768;8.850;2023-11-18T12:46:01;97636.56;;;6.87;100.00
24306;BME280;12423;48.768;8.850;2023-11-18T12:48:36;97648.22;;;6.85;100.00
24306;BME280;12423;48.768;8.850;2023-11-18T12:51:09;97643.59;;;6.74;100.00
24306;BME280;12423;48.768;8.850;2023-11-18T12:53:47;97652.00;;;6.66;100.00
24306;BME280;12423;48.768;8.850;2023-11-18T12:56:17;97635.88;;;6.55;100.00
24306;BME280;12423;48.768;8.850;2023-11-18T12:58:46;97642.91;;;6.56;100.00
24306;BME280;12423;48.768;8.850;2023-11-18T13:01:16;97648.19;;;6.56;100.00
24306;BME280;12423;48.768;8.850;2023-11-18T13:03:46;97649.94;;;6.57;100.00
24306;BME280;12423;48.768;8.850;2023-11-18T13:06:14;97648.97;;;6.58;100.00
24306;BME280;12423;48.768;8.850;2023-11-18T13:08:42;97645.19;;;6.62;100.00
24306;BME280;12423;48.768;8.850;2023-11-18T13:11:09;97641.03;;;6.72;100.00
24306;BME280;12423;48.768;8.850;2023-11-18T13:13:43;97637.13;;;6.78;100.00
24306;BME280;12423;48.768;8.850;2023-11-18T13:16:10;97611.53;;;6.77;100.00
24306;BME280;12423;48.768;8.850;2023-11-18T13:18:43;97620.53;;;6.74;100.00
24306;BME280;12423;48.768;8.850;2023-11-18T13:21:14;97603.56;;;6.77;100.00